sensor_id;sensor_type;location;lat;lon;timestamp;pressure;altitude;pressure_sealevel;temperature;humidity
35848;BME280;22332;51.954;20.118;2023-06-22T00:01:58;100224.88;;;20.53;86.64
35848;BME280;22332;51.954;20.118;2023-06-22T00:05:04;100222.99;;;20.53;86.56
35848;BME280;22332;51.954;20.118;2023-06-22T00:08:10;100221.19;;;20.52;86.71
35848;BME280;22332;51.954;20.118;2023-06-22T00:11:16;100222.17;;;20.51;86.89
35848;BME280;22332;51.954;20.118;2023-06-22T00:14:21;100220.92;;;20.51;86.95
35848;BME280;22332;51.954;20.118;2023-06-22T00:17:27;100216.10;;;20.51;86.94
35848;BME280;22332;51.954;20.118;2023-06-22T00:20:33;100216.45;;;20.50;86.67
35848;BME280;22332;51.954;20.118;2023-06-22T00:23:41;100214.83;;;20.47;86.66
35848;BME280;22332;51.954;20.118;2023-06-22T00:26:47;100217.77;;;20.43;86.54
35848;BME280;22332;51.954;20.118;2023-06-22T00:29:54;100220.55;;;20.40;86.38
35848;BME280;22332;51.954;20.118;2023-06-22T00:32:59;100227.79;;;20.36;86.32
35848;BME280;22332;51.954;20.118;2023-06-22T00:36:06;100222.02;;;20.31;86.36
35848;BME280;22332;51.954;20.118;2023-06-22T00:39:12;100225.04;;;20.27;86.35
35848;BME280;22332;51.954;20.118;2023-06-22T00:42:17;100229.11;;;20.24;86.26
35848;BME280;22332;51.954;20.118;2023-06-22T00:45:25;100226.63;;;20.20;86.32
35848;BME280;22332;51.954;20.118;2023-06-22T00:48:30;100228.86;;;20.17;86.38
35848;BME280;22332;51.954;20.118;2023-06-22T00:51:38;100233.50;;;20.16;86.43
35848;BME280;22332;51.954;20.118;2023-06-22T00:54:48;100231.66;;;20.18;87.78
35848;BME280;22332;51.954;20.118;2023-06-22T00:57:54;100225.48;;;20.19;89.20
35848;BME280;22332;51.954;20.118;2023-06-22T01:01:01;100225.08;;;20.22;89.22
35848;BME280;22332;51.954;20.118;2023-06-22T01:04:06;100221.45;;;20.27;89.62
35848;BME280;22332;51.954;20.118;2023-06-22T01:07:21;100221.48;;;20.32;89.75
35848;BME280;22332;51.954;20.118;2023-06-22T01:10:36;100225.31;;;20.38;89.83
35848;BME280;22332;51.954;20.118;2023-06-22T01:13:50;100227.70;;;20.43;91.18
35848;BME280;22332;51.954;20.118;2023-06-22T01:17:01;100237.83;;;20.43;91.19
35848;BME280;22332;51.954;20.118;2023-06-22T01:20:10;100241.98;;;20.45;92.18
35848;BME280;22332;51.954;20.118;2023-06-22T01:23:27;100242.33;;;20.45;92.97
35848;BME280;22332;51.954;20.118;2023-06-22T01:26:41;100241.95;;;20.46;92.47
35848;BME280;22332;51.954;20.118;2023-06-22T01:29:48;100242.02;;;20.48;92.27
35848;BME280;22332;51.954;20.118;2023-06-22T01:32:56;100253.23;;;20.48;91.82
35848;BME280;22332;51.954;20.118;2023-06-22T01:36:04;100254.40;;;20.47;92.27
35848;BME280;22332;51.954;20.118;2023-06-22T01:39:11;100253.80;;;20.49;91.96
35848;BME280;22332;51.954;20.118;2023-06-22T01:42:17;100254.75;;;20.44;93.01
35848;BME280;22332;51.954;20.118;2023-06-22T01:45:23;100255.55;;;20.36;93.30
35848;BME280;22332;51.954;20.118;2023-06-22T01:48:30;100249.94;;;20.28;94.64
35848;BME280;22332;51.954;20.118;2023-06-22T01:51:36;100250.66;;;20.20;95.09
35848;BME280;22332;51.954;20.118;2023-06-22T01:54:41;100252.77;;;20.10;95.91
35848;BME280;22332;51.954;20.118;2023-06-22T01:57:47;100254.80;;;20.06;95.52
35848;BME280;22332;51.954;20.118;2023-06-22T02:00:57;100266.02;;;20.01;96.48
35848;BME280;22332;51.954;20.118;2023-06-22T02:04:08;100264.93;;;19.96;97.54
35848;BME280;22332;51.954;20.118;2023-06-22T02:07:19;100275.11;;;19.91;97.18
35848;BME280;22332;51.954;20.118;2023-06-22T02:10:28;100281.83;;;19.86;98.38
35848;BME280;22332;51.954;20.118;2023-06-22T02:13:36;100275.11;;;19.78;97.91
35848;BME280;22332;51.954;20.118;2023-06-22T02:16:43;100275.15;;;19.76;97.66
35848;BME280;22332;51.954;20.118;2023-06-22T02:19:48;100280.45;;;19.75;97.68
35848;BME280;22332;51.954;20.118;2023-06-22T02:22:54;100283.81;;;19.75;96.40
35848;BME280;22332;51.954;20.118;2023-06-22T02:25:59;100290.02;;;19.79;95.85
35848;BME280;22332;51.954;20.118;2023-06-22T02:29:06;100292.10;;;19.80;95.49
35848;BME280;22332;51.954;20.118;2023-06-22T02:32:12;100296.99;;;19.84;95.30
35848;BME280;22332;51.954;20.118;2023-06-22T02:35:19;100297.54;;;19.87;95.05
35848;BME280;22332;51.954;20.118;2023-06-22T02:38:26;100302.58;;;19.87;95.54
35848;BME280;22332;51.954;20.118;2023-06-22T02:41:31;100314.36;;;19.85;95.69
35848;BME280;22332;51.954;20.118;2023-06-22T02:44:37;100313.62;;;19.86;96.04
35848;BME280;22332;51.954;20.118;2023-06-22T02:47:42;100314.23;;;19.86;95.81
35848;BME280;22332;51.954;20.118;2023-06-22T02:50:48;100318.06;;;19.88;95.38
35848;BME280;22332;51.954;20.118;2023-06-22T02:53:54;100311.69;;;19.93;94.98
35848;BME280;22332;51.954;20.118;2023-06-22T02:57:02;100319.80;;;19.96;95.15
35848;BME280;22332;51.954;20.118;2023-06-22T03:00:12;100321.51;;;19.94;95.74
35848;BME280;22332;51.954;20.118;2023-06-22T03:03:22;100320.80;;;19.91;95.16
35848;BME280;22332;51.954;20.118;2023-06-22T03:06:30;100324.76;;;19.91;95.49
35848;BME280;22332;51.954;20.118;2023-06-22T03:09:36;100328.71;;;19.91;95.12
35848;BME280;22332;51.954;20.118;2023-06-22T03:12:42;100332.85;;;19.91;95.17
35848;BME280;22332;51.954;20.118;2023-06-22T03:15:48;100341.77;;;19.88;96.26
35848;BME280;22332;51.954;20.118;2023-06-22T03:18:53;100350.36;;;19.84;95.53
35848;BME280;22332;51.954;20.118;2023-06-22T03:22:00;100354.23;;;19.83;95.70
35848;BME280;22332;51.954;20.118;2023-06-22T03:25:07;100354.23;;;19.86;95.48
35848;BME280;22332;51.954;20.118;2023-06-22T03:28:18;100358.65;;;19.85;95.77
35848;BME280;22332;51.954;20.118;2023-06-22T03:31:24;100360.94;;;19.84;96.38
35848;BME280;22332;51.954;20.118;2023-06-22T03:34:30;100355.28;;;19.87;96.26
35848;BME280;22332;51.954;20.118;2023-06-22T03:37:38;100365.29;;;19.96;95.79
35848;BME280;22332;51.954;20.118;2023-06-22T03:40:44;100368.30;;;20.09;95.52
35848;BME280;22332;51.954;20.118;2023-06-22T03:43:49;100360.25;;;20.26;95.22
35848;BME280;22332;51.954;20.118;2023-06-22T03:46:55;100367.14;;;20.39;94.62
35848;BME280;22332;51.954;20.118;2023-06-22T03:50:00;100377.84;;;20.57;94.41
35848;BME280;22332;51.954;20.118;2023-06-22T03:53:07;100386.42;;;20.79;94.12
35848;BME280;22332;51.954;20.118;2023-06-22T03:56:13;100385.89;;;20.87;93.55
35848;BME280;22332;51.954;20.118;2023-06-22T03:59:24;100390.77;;;20.84;93.18
35848;BME280;22332;51.954;20.118;2023-06-22T04:02:30;100393.91;;;20.84;93.42
35848;BME280;22332;51.954;20.118;2023-06-22T04:05:35;100396.36;;;20.92;93.12
35848;BME280;22332;51.954;20.118;2023-06-22T04:08:41;100392.66;;;20.99;92.97
35848;BME280;22332;51.954;20.118;2023-06-22T04:11:46;100389.70;;;21.04;92.40
35848;BME280;22332;51.954;20.118;2023-06-22T04:14:52;100388.98;;;21.12;92.08
35848;BME280;22332;51.954;20.118;2023-06-22T04:17:57;100388.34;;;21.19;91.66
35848;BME280;22332;51.954;20.118;2023-06-22T04:21:04;100384.54;;;21.24;91.32
35848;BME280;22332;51.954;20.118;2023-06-22T04:24:11;100385.39;;;21.33;91.30
35848;BME280;22332;51.954;20.118;2023-06-22T04:27:17;100379.89;;;21.44;90.66
35848;BME280;22332;51.954;20.118;2023-06-22T04:30:24;100379.77;;;21.56;90.23
35848;BME280;22332;51.954;20.118;2023-06-22T04:33:29;100380.69;;;21.64;89.61
35848;BME280;22332;51.954;20.118;2023-06-22T04:36:38;100381.03;;;21.64;88.92
35848;BME280;22332;51.954;20.118;2023-06-22T04:39:44;100383.41;;;21.73;89.68
35848;BME280;22332;51.954;20.118;2023-06-22T04:42:50;100383.13;;;21.84;88.42
35848;BME280;22332;51.954;20.118;2023-06-22T04:45:57;100384.13;;;21.90;88.38
35848;BME280;22332;51.954;20.118;2023-06-22T04:49:08;100392.89;;;21.99;88.41
35848;BME280;22332;51.954;20.118;2023-06-22T04:52:15;100393.35;;;22.07;87.98
35848;BME280;22332;51.954;20.118;2023-06-22T04:55:22;100398.84;;;22.09;86.96
35848;BME280;22332;51.954;20.118;2023-06-22T04:58:30;100396.88;;;22.13;86.95
35848;BME280;22332;51.954;20.118;2023-06-22T05:01:36;100400.47;;;22.18;87.31
35848;BME280;22332;51.954;20.118;2023-06-22T05:04:42;100407.34;;;22.25;87.07
35848;BME280;22332;51.954;20.118;2023-06-22T05:07:49;100414.77;;;22.25;85.53
35848;BME280;22332;51.954;20.118;2023-06-22T05:10:57;100413.19;;;22.25;85.65
35848;BME280;22332;51.954;20.118;2023-06-22T05:14:03;100412.00;;;22.23;84.64
35848;BME280;22332;51.954;20.118;2023-06-22T05:17:08;100414.39;;;22.26;85.56
35848;BME280;22332;51.954;20.118;2023-06-22T05:20:18;100424.16;;;22.29;84.51
35848;BME280;22332;51.954;20.118;2023-06-22T05:23:23;100428.30;;;22.22;84.13
35848;BME280;22332;51.954;20.118;2023-06-22T05:26:29;100429.81;;;22.28;85.24
35848;BME280;22332;51.954;20.118;2023-06-22T05:29:35;100425.61;;;22.42;85.10
35848;BME280;22332;51.954;20.118;2023-06-22T05:32:40;100424.05;;;22.56;85.26
35848;BME280;22332;51.954;20.118;2023-06-22T05:35:48;100428.19;;;22.67;84.18
35848;BME280;22332;51.954;20.118;2023-06-22T05:38:55;100434.52;;;22.70;83.39
35848;BME280;22332;51.954;20.118;2023-06-22T05:42:02;100430.14;;;22.79;82.78
35848;BME280;22332;51.954;20.118;2023-06-22T05:45:09;100435.91;;;22.79;81.51
35848;BME280;22332;51.954;20.118;2023-06-22T05:48:15;100436.16;;;22.79;82.96
35848;BME280;22332;51.954;20.118;2023-06-22T05:51:20;100440.25;;;22.83;82.62
35848;BME280;22332;51.954;20.118;2023-06-22T05:54:26;100440.95;;;22.83;81.52
35848;BME280;22332;51.954;20.118;2023-06-22T05:57:32;100440.92;;;22.85;81.74
35848;BME280;22332;51.954;20.118;2023-06-22T06:00:38;100442.94;;;22.92;81.43
35848;BME280;22332;51.954;20.118;2023-06-22T06:03:43;100447.73;;;22.95;80.57
35848;BME280;22332;51.954;20.118;2023-06-22T06:06:49;100447.30;;;23.01;81.45
35848;BME280;22332;51.954;20.118;2023-06-22T06:09:54;100452.37;;;23.11;80.88
35848;BME280;22332;51.954;20.118;2023-06-22T06:13:00;100451.93;;;23.19;80.16
35848;BME280;22332;51.954;20.118;2023-06-22T06:16:08;100445.14;;;23.17;79.35
35848;BME280;22332;51.954;20.118;2023-06-22T06:19:13;100450.45;;;23.20;79.96
35848;BME280;22332;51.954;20.118;2023-06-22T06:22:19;100456.16;;;23.18;78.64
35848;BME280;22332;51.954;20.118;2023-06-22T06:25:25;100452.73;;;23.21;79.94
35848;BME280;22332;51.954;20.118;2023-06-22T06:28:31;100440.04;;;23.32;80.14
35848;BME280;22332;51.954;20.118;2023-06-22T06:31:36;100440.02;;;23.44;79.89
35848;BME280;22332;51.954;20.118;2023-06-22T06:34:42;100442.78;;;23.50;77.64
35848;BME280;22332;51.954;20.118;2023-06-22T06:37:49;100444.71;;;23.47;78.10
35848;BME280;22332;51.954;20.118;2023-06-22T06:40:54;100440.42;;;23.48;78.96
35848;BME280;22332;51.954;20.118;2023-06-22T06:44:00;100438.88;;;23.60;78.84
35848;BME280;22332;51.954;20.118;2023-06-22T06:47:06;100443.44;;;23.64;78.25
35848;BME280;22332;51.954;20.118;2023-06-22T06:50:12;100447.86;;;23.62;78.50
35848;BME280;22332;51.954;20.118;2023-06-22T06:53:18;100455.42;;;23.56;76.60
35848;BME280;22332;51.954;20.118;2023-06-22T06:56:23;100456.73;;;23.44;76.35
35848;BME280;22332;51.954;20.118;2023-06-22T06:59:29;100459.37;;;23.39;75.75
35848;BME280;22332;51.954;20.118;2023-06-22T07:02:35;100458.20;;;23.42;77.04
35848;BME280;22332;51.954;20.118;2023-06-22T07:05:41;100452.74;;;23.48;76.06
35848;BME280;22332;51.954;20.118;2023-06-22T07:08:46;100453.45;;;23.46;75.77
35848;BME280;22332;51.954;20.118;2023-06-22T07:11:52;100452.88;;;23.47;75.49
35848;BME280;22332;51.954;20.118;2023-06-22T07:15:02;100452.39;;;23.47;74.72
35848;BME280;22332;51.954;20.118;2023-06-22T07:18:08;100446.52;;;23.47;73.28
35848;BME280;22332;51.954;20.118;2023-06-22T07:21:14;100452.18;;;23.49;74.01
35848;BME280;22332;51.954;20.118;2023-06-22T07:24:19;100455.91;;;23.55;73.99
35848;BME280;22332;51.954;20.118;2023-06-22T07:27:25;100453.92;;;23.68;74.55
35848;BME280;22332;51.954;20.118;2023-06-22T07:30:31;100457.45;;;23.76;71.04
35848;BME280;22332;51.954;20.118;2023-06-22T07:33:37;100459.48;;;23.72;70.18
35848;BME280;22332;51.954;20.118;2023-06-22T07:36:42;100455.80;;;23.77;72.40
35848;BME280;22332;51.954;20.118;2023-06-22T07:39:48;100457.83;;;23.87;70.70
35848;BME280;22332;51.954;20.118;2023-06-22T07:42:54;100458.34;;;23.98;70.82
35848;BME280;22332;51.954;20.118;2023-06-22T07:46:00;100461.33;;;24.00;67.96
35848;BME280;22332;51.954;20.118;2023-06-22T07:49:05;100459.50;;;23.97;68.94
35848;BME280;22332;51.954;20.118;2023-06-22T07:52:12;100453.10;;;23.94;68.40
35848;BME280;22332;51.954;20.118;2023-06-22T07:55:17;100447.45;;;23.94;66.07
35848;BME280;22332;51.954;20.118;2023-06-22T07:58:24;100446.58;;;24.01;65.36
35848;BME280;22332;51.954;20.118;2023-06-22T08:01:29;100445.23;;;24.07;66.93
35848;BME280;22332;51.954;20.118;2023-06-22T08:04:35;100444.08;;;24.16;65.94
35848;BME280;22332;51.954;20.118;2023-06-22T08:07:41;100439.61;;;24.19;66.18
35848;BME280;22332;51.954;20.118;2023-06-22T08:10:48;100447.67;;;24.28;66.37
35848;BME280;22332;51.954;20.118;2023-06-22T08:13:54;100450.17;;;24.40;66.59
35848;BME280;22332;51.954;20.118;2023-06-22T08:17:02;100444.95;;;24.44;64.98
35848;BME280;22332;51.954;20.118;2023-06-22T08:20:09;100447.55;;;24.49;62.57
35848;BME280;22332;51.954;20.118;2023-06-22T08:23:16;100450.69;;;24.53;62.54
35848;BME280;22332;51.954;20.118;2023-06-22T08:26:22;100451.88;;;24.58;61.90
35848;BME280;22332;51.954;20.118;2023-06-22T08:29:27;100451.55;;;24.63;62.83
35848;BME280;22332;51.954;20.118;2023-06-22T08:32:33;100453.89;;;24.68;59.78
35848;BME280;22332;51.954;20.118;2023-06-22T08:35:38;100453.19;;;24.63;56.65
35848;BME280;22332;51.954;20.118;2023-06-22T08:38:44;100454.34;;;24.63;57.23
35848;BME280;22332;51.954;20.118;2023-06-22T08:41:54;100455.31;;;24.71;56.30
35848;BME280;22332;51.954;20.118;2023-06-22T08:45:00;100457.70;;;24.76;56.42
35848;BME280;22332;51.954;20.118;2023-06-22T08:48:06;100454.95;;;24.80;57.23
35848;BME280;22332;51.954;20.118;2023-06-22T08:51:11;100464.02;;;24.84;56.16
35848;BME280;22332;51.954;20.118;2023-06-22T08:54:18;100465.27;;;24.86;55.58
35848;BME280;22332;51.954;20.118;2023-06-22T08:57:23;100469.81;;;24.84;52.71
35848;BME280;22332;51.954;20.118;2023-06-22T09:00:29;100464.09;;;24.84;53.60
35848;BME280;22332;51.954;20.118;2023-06-22T09:03:37;100468.60;;;24.86;52.54
35848;BME280;22332;51.954;20.118;2023-06-22T09:06:42;100474.41;;;24.87;53.07
35848;BME280;22332;51.954;20.118;2023-06-22T09:09:50;100468.58;;;24.90;54.15
35848;BME280;22332;51.954;20.118;2023-06-22T09:12:56;100467.30;;;24.98;53.73
35848;BME280;22332;51.954;20.118;2023-06-22T09:16:01;100467.49;;;25.08;54.47
35848;BME280;22332;51.954;20.118;2023-06-22T09:19:09;100467.69;;;25.20;53.41
35848;BME280;22332;51.954;20.118;2023-06-22T09:22:15;100470.55;;;25.30;54.31
35848;BME280;22332;51.954;20.118;2023-06-22T09:25:21;100472.16;;;25.38;53.02
35848;BME280;22332;51.954;20.118;2023-06-22T09:28:26;100474.57;;;25.43;52.25
35848;BME280;22332;51.954;20.118;2023-06-22T09:31:32;100473.83;;;25.44;51.04
35848;BME280;22332;51.954;20.118;2023-06-22T09:34:37;100474.92;;;25.42;49.69
35848;BME280;22332;51.954;20.118;2023-06-22T09:37:43;100477.16;;;25.39;48.93
35848;BME280;22332;51.954;20.118;2023-06-22T09:40:49;100479.55;;;25.44;51.08
35848;BME280;22332;51.954;20.118;2023-06-22T09:43:55;100477.69;;;25.54;49.26
35848;BME280;22332;51.954;20.118;2023-06-22T09:47:00;100473.95;;;25.56;49.33
35848;BME280;22332;51.954;20.118;2023-06-22T09:50:07;100472.45;;;25.60;49.37
35848;BME280;22332;51.954;20.118;2023-06-22T09:53:13;100463.83;;;25.68;50.77
35848;BME280;22332;51.954;20.118;2023-06-22T09:56:19;100462.38;;;25.76;48.62
35848;BME280;22332;51.954;20.118;2023-06-22T09:59:24;100450.67;;;25.80;49.66
35848;BME280;22332;51.954;20.118;2023-06-22T10:02:30;100446.73;;;25.86;48.56
35848;BME280;22332;51.954;20.118;2023-06-22T10:05:35;100450.38;;;25.89;48.42
35848;BME280;22332;51.954;20.118;2023-06-22T10:08:41;100448.30;;;25.91;48.43
35848;BME280;22332;51.954;20.118;2023-06-22T10:11:46;100445.72;;;25.91;46.81
35848;BME280;22332;51.954;20.118;2023-06-22T10:14:52;100443.11;;;25.94;48.21
35848;BME280;22332;51.954;20.118;2023-06-22T10:17:57;100444.81;;;25.98;47.84
35848;BME280;22332;51.954;20.118;2023-06-22T10:21:03;100434.66;;;26.03;49.66
35848;BME280;22332;51.954;20.118;2023-06-22T10:24:09;100439.92;;;26.08;48.58
35848;BME280;22332;51.954;20.118;2023-06-22T10:27:17;100436.92;;;26.09;48.73
35848;BME280;22332;51.954;20.118;2023-06-22T10:30:31;100444.53;;;26.12;47.96
35848;BME280;22332;51.954;20.118;2023-06-22T10:33:36;100440.60;;;26.17;48.36
35848;BME280;22332;51.954;20.118;2023-06-22T10:36:42;100441.29;;;26.23;46.45
35848;BME280;22332;51.954;20.118;2023-06-22T10:39:50;100445.38;;;26.21;45.49
35848;BME280;22332;51.954;20.118;2023-06-22T10:42:56;100441.66;;;26.18;44.34
35848;BME280;22332;51.954;20.118;2023-06-22T10:46:01;100433.95;;;26.23;45.82
35848;BME280;22332;51.954;20.118;2023-06-22T10:49:07;100429.98;;;26.29;46.44
35848;BME280;22332;51.954;20.118;2023-06-22T10:52:12;100433.95;;;26.39;45.26
35848;BME280;22332;51.954;20.118;2023-06-22T10:55:18;100431.71;;;26.39;44.75
35848;BME280;22332;51.954;20.118;2023-06-22T10:58:23;100426.08;;;26.45;45.77
35848;BME280;22332;51.954;20.118;2023-06-22T11:01:29;100424.41;;;26.55;46.12
35848;BME280;22332;51.954;20.118;2023-06-22T11:04:37;100424.41;;;26.68;46.12
35848;BME280;22332;51.954;20.118;2023-06-22T11:07:46;100430.65;;;26.76;45.28
35848;BME280;22332;51.954;20.118;2023-06-22T11:10:53;100418.45;;;26.77;45.31
35848;BME280;22332;51.954;20.118;2023-06-22T11:13:59;100421.86;;;26.80;44.54
35848;BME280;22332;51.954;20.118;2023-06-22T11:17:05;100429.89;;;26.82;43.51
35848;BME280;22332;51.954;20.118;2023-06-22T11:20:12;100431.21;;;26.78;42.89
35848;BME280;22332;51.954;20.118;2023-06-22T11:23:18;100431.48;;;26.74;43.22
35848;BME280;22332;51.954;20.118;2023-06-22T11:26:23;100432.52;;;26.77;44.09
35848;BME280;22332;51.954;20.118;2023-06-22T11:29:29;100428.30;;;26.82;43.01
35848;BME280;22332;51.954;20.118;2023-06-22T11:32:37;100427.53;;;26.86;43.72
35848;BME280;22332;51.954;20.118;2023-06-22T11:35:43;100424.69;;;26.92;43.36
35848;BME280;22332;51.954;20.118;2023-06-22T11:38:49;100421.96;;;26.95;42.49
35848;BME280;22332;51.954;20.118;2023-06-22T11:41:55;100413.04;;;26.94;42.21
35848;BME280;22332;51.954;20.118;2023-06-22T11:45:01;100398.20;;;26.95;43.17
35848;BME280;22332;51.954;20.118;2023-06-22T11:48:09;100397.00;;;27.05;43.87
35848;BME280;22332;51.954;20.118;2023-06-22T11:51:16;100402.96;;;27.11;42.11
35848;BME280;22332;51.954;20.118;2023-06-22T11:54:22;100403.50;;;27.04;40.80
35848;BME280;22332;51.954;20.118;2023-06-22T11:57:27;100396.33;;;27.05;42.39
35848;BME280;22332;51.954;20.118;2023-06-22T12:00:33;100389.39;;;27.11;42.85
35848;BME280;22332;51.954;20.118;2023-06-22T12:03:38;100389.33;;;27.11;41.42
35848;BME280;22332;51.954;20.118;2023-06-22T12:06:44;100391.44;;;27.08;41.12
35848;BME280;22332;51.954;20.118;2023-06-22T12:09:49;100391.98;;;27.08;41.50
35848;BME280;22332;51.954;20.118;2023-06-22T12:12:55;100382.75;;;27.11;41.65
35848;BME280;22332;51.954;20.118;2023-06-22T12:16:04;100387.62;;;27.16;39.93
35848;BME280;22332;51.954;20.118;2023-06-22T12:19:10;100385.32;;;27.11;39.76
35848;BME280;22332;51.954;20.118;2023-06-22T12:22:16;100390.20;;;27.17;38.75
35848;BME280;22332;51.954;20.118;2023-06-22T12:25:21;100386.63;;;27.26;39.91
35848;BME280;22332;51.954;20.118;2023-06-22T12:28:27;100385.77;;;27.28;39.82
35848;BME280;22332;51.954;20.118;2023-06-22T12:31:32;100386.85;;;27.23;39.59
35848;BME280;22332;51.954;20.118;2023-06-22T12:34:38;100386.39;;;27.28;39.14
35848;BME280;22332;51.954;20.118;2023-06-22T12:37:43;100386.72;;;27.28;39.45
35848;BME280;22332;51.954;20.118;2023-06-22T12:40:49;100394.30;;;27.31;39.87
35848;BME280;22332;51.954;20.118;2023-06-22T12:43:54;100393.12;;;27.34;38.58
35848;BME280;22332;51.954;20.118;2023-06-22T12:47:00;100398.06;;;27.29;38.81
35848;BME280;22332;51.954;20.118;2023-06-22T12:50:07;100395.05;;;27.28;39.05
35848;BME280;22332;51.954;20.118;2023-06-22T12:53:13;100389.80;;;27.30;39.53
35848;BME280;22332;51.954;20.118;2023-06-22T12:56:18;100380.92;;;27.37;40.49
35848;BME280;22332;51.954;20.118;2023-06-22T12:59:24;100377.41;;;27.44;40.41
35848;BME280;22332;51.954;20.118;2023-06-22T13:02:29;100370.30;;;27.51;40.60
35848;BME280;22332;51.954;20.118;2023-06-22T13:05:35;100363.43;;;27.50;40.06
35848;BME280;22332;51.954;20.118;2023-06-22T13:08:40;100357.02;;;27.51;40.46
35848;BME280;22332;51.954;20.118;2023-06-22T13:11:46;100364.25;;;27.50;40.31
35848;BME280;22332;51.954;20.118;2023-06-22T13:14:52;100358.50;;;27.53;40.78
35848;BME280;22332;51.954;20.118;2023-06-22T13:17:58;100356.35;;;27.56;41.15
35848;BME280;22332;51.954;20.118;2023-06-22T13:21:04;100360.13;;;27.56;41.14
35848;BME280;22332;51.954;20.118;2023-06-22T13:24:10;100359.04;;;27.49;40.77
35848;BME280;22332;51.954;20.118;2023-06-22T13:27:15;100361.81;;;27.45;40.67
35848;BME280;22332;51.954;20.118;2023-06-22T13:30:21;100357.67;;;27.42;40.64
35848;BME280;22332;51.954;20.118;2023-06-22T13:33:26;100356.79;;;27.48;40.96
35848;BME280;22332;51.954;20.118;2023-06-22T13:36:32;100361.40;;;27.50;41.35
35848;BME280;22332;51.954;20.118;2023-06-22T13:39:37;100356.96;;;27.50;39.29
35848;BME280;22332;51.954;20.118;2023-06-22T13:42:43;100353.14;;;27.53;40.60
35848;BME280;22332;51.954;20.118;2023-06-22T13:45:48;100358.52;;;27.53;39.57
35848;BME280;22332;51.954;20.118;2023-06-22T13:48:54;100361.55;;;27.47;40.03
35848;BME280;22332;51.954;20.118;2023-06-22T13:52:00;100353.29;;;27.44;39.62
35848;BME280;22332;51.954;20.118;2023-06-22T13:55:09;100352.39;;;27.40;39.11
35848;BME280;22332;51.954;20.118;2023-06-22T13:58:15;100355.61;;;27.36;38.80
35848;BME280;22332;51.954;20.118;2023-06-22T14:01:20;100356.55;;;27.38;38.88
35848;BME280;22332;51.954;20.118;2023-06-22T14:04:26;100359.92;;;27.43;38.21
35848;BME280;22332;51.954;20.118;2023-06-22T14:07:33;100352.48;;;27.43;37.50
35848;BME280;22332;51.954;20.118;2023-06-22T14:10:38;100345.71;;;27.40;37.63
35848;BME280;22332;51.954;20.118;2023-06-22T14:13:44;100353.25;;;27.45;37.93
35848;BME280;22332;51.954;20.118;2023-06-22T14:16:49;100349.25;;;27.52;36.84
35848;BME280;22332;51.954;20.118;2023-06-22T14:19:55;100345.89;;;27.58;37.01
35848;BME280;22332;51.954;20.118;2023-06-22T14:23:00;100349.98;;;27.64;37.00
35848;BME280;22332;51.954;20.118;2023-06-22T14:26:06;100348.91;;;27.69;36.83
35848;BME280;22332;51.954;20.118;2023-06-22T14:29:12;100343.87;;;27.75;36.76
35848;BME280;22332;51.954;20.118;2023-06-22T14:32:17;100341.83;;;27.74;36.81
35848;BME280;22332;51.954;20.118;2023-06-22T14:35:23;100341.59;;;27.82;37.41
35848;BME280;22332;51.954;20.118;2023-06-22T14:38:29;100344.55;;;27.88;36.37
35848;BME280;22332;51.954;20.118;2023-06-22T14:41:38;100343.90;;;27.84;36.15
35848;BME280;22332;51.954;20.118;2023-06-22T14:44:43;100344.66;;;27.82;36.38
35848;BME280;22332;51.954;20.118;2023-06-22T14:47:49;100339.88;;;27.87;36.73
35848;BME280;22332;51.954;20.118;2023-06-22T14:50:54;100336.32;;;27.94;37.14
35848;BME280;22332;51.954;20.118;2023-06-22T14:54:00;100337.34;;;27.92;36.65
35848;BME280;22332;51.954;20.118;2023-06-22T14:57:06;100342.41;;;27.80;35.93
35848;BME280;22332;51.954;20.118;2023-06-22T15:00:13;100337.77;;;27.74;36.21
35848;BME280;22332;51.954;20.118;2023-06-22T15:03:18;100340.21;;;27.71;36.08
35848;BME280;22332;51.954;20.118;2023-06-22T15:06:29;100338.91;;;27.65;36.53
35848;BME280;22332;51.954;20.118;2023-06-22T15:09:35;100340.94;;;27.65;36.01
35848;BME280;22332;51.954;20.118;2023-06-22T15:12:43;100339.73;;;27.62;36.13
35848;BME280;22332;51.954;20.118;2023-06-22T15:15:50;100342.71;;;27.59;35.88
35848;BME280;22332;51.954;20.118;2023-06-22T15:18:55;100335.85;;;27.58;36.84
35848;BME280;22332;51.954;20.118;2023-06-22T15:22:01;100336.08;;;27.57;36.03
35848;BME280;22332;51.954;20.118;2023-06-22T15:25:08;100333.89;;;27.45;36.29
35848;BME280;22332;51.954;20.118;2023-06-22T15:28:14;100335.61;;;27.38;36.25
35848;BME280;22332;51.954;20.118;2023-06-22T15:31:20;100334.40;;;27.37;36.31
35848;BME280;22332;51.954;20.118;2023-06-22T15:34:26;100332.15;;;27.36;35.97
35848;BME280;22332;51.954;20.118;2023-06-22T15:37:31;100327.27;;;27.36;35.75
35848;BME280;22332;51.954;20.118;2023-06-22T15:40:37;100322.77;;;27.37;35.74
35848;BME280;22332;51.954;20.118;2023-06-22T15:43:42;100318.60;;;27.42;36.24
35848;BME280;22332;51.954;20.118;2023-06-22T15:46:47;100324.30;;;27.50;36.02
35848;BME280;22332;51.954;20.118;2023-06-22T15:49:54;100322.45;;;27.54;36.37
35848;BME280;22332;51.954;20.118;2023-06-22T15:53:01;100315.84;;;27.56;35.59
35848;BME280;22332;51.954;20.118;2023-06-22T15:56:07;100315.66;;;27.56;36.09
35848;BME280;22332;51.954;20.118;2023-06-22T15:59:13;100312.83;;;27.55;35.23
35848;BME280;22332;51.954;20.118;2023-06-22T16:02:19;100312.01;;;27.49;35.49